Time;durP1;ratioP1;P1;durP2;ratioP2;P2;SDS_P1;SDS_P2;PMS_P1;PMS_P2;Temp;Humidity;BMP_temperature;BMP_pressure;BME280_temperature;BME280_humidity;BME280_pressure;Samples;Min_cycle;Max_cycle;Signal;HPM_P1;HPM_P2
2022/01/15 00:00:27;;;;;;;44.35;21.33;;;;;;;4.45;100.00;102290.81;5204839;28;20655;-80
2022/01/15 00:02:57;;;;;;;43.08;19.48;;;;;;;4.59;100.00;102291.03;5206361;28;20127;-80
2022/01/15 00:05:27;;;;;;;47.50;20.48;;;;;;;4.50;100.00;102281.41;5208850;28;20060;-80
2022/01/15 00:07:59;;;;;;;42.80;19.60;;;;;;;4.61;100.00;102277.28;5213983;28;20040;-80
2022/01/15 00:10:30;;;;;;;40.60;18.38;;;;;;;4.54;100.00;102284.91;5213021;28;20043;-80
2022/01/15 00:13:02;;;;;;;41.72;17.08;;;;;;;4.47;100.00;102289.13;5208533;28;20479;-81
2022/01/15 00:15:36;;;;;;;39.08;16.27;;;;;;;4.37;100.00;102279.47;5205032;28;20438;-82
2022/01/15 00:18:17;;;;;;;39.55;16.20;;;;;;;4.43;100.00;102279.56;5209520;28;20040;-80
2022/01/15 00:20:47;;;;;;;36.55;15.82;;;;;;;4.37;100.00;102282.06;5208597;28;20065;-81
2022/01/15 00:23:17;;;;;;;33.00;14.60;;;;;;;4.29;100.00;102288.81;5202819;28;20064;-81
2022/01/15 00:25:48;;;;;;;37.05;15.32;;;;;;;4.25;100.00;102287.03;5204102;28;20044;-83
2022/01/15 00:28:18;;;;;;;37.90;14.85;;;;;;;4.20;100.00;102283.50;5210987;28;20100;-81
2022/01/15 00:30:48;;;;;;;36.08;14.88;;;;;;;4.19;100.00;102279.16;5210100;28;20395;-81
2022/01/15 00:33:18;;;;;;;39.13;15.50;;;;;;;4.14;100.00;102269.59;5211331;28;20033;-80
2022/01/15 00:35:49;;;;;;;38.08;15.10;;;;;;;4.19;100.00;102275.69;5206109;28;20026;-82
2022/01/15 00:38:19;;;;;;;38.33;15.32;;;;;;;4.11;100.00;102279.88;5202709;28;20042;-80
2022/01/15 00:40:49;;;;;;;36.70;15.13;;;;;;;4.05;100.00;102280.63;5210195;28;20131;-81
2022/01/15 00:43:21;;;;;;;37.50;15.35;;;;;;;4.02;100.00;102272.81;5210704;28;20028;-81
2022/01/15 00:45:51;;;;;;;37.85;14.68;;;;;;;3.99;100.00;102271.88;5209740;28;20032;-81
2022/01/15 00:48:22;;;;;;;38.33;14.85;;;;;;;3.93;100.00;102274.38;5211217;28;20033;-81
2022/01/15 00:50:53;;;;;;;35.00;14.15;;;;;;;3.94;100.00;102281.28;5209418;28;20037;-80
2022/01/15 00:53:23;;;;;;;44.58;15.75;;;;;;;3.89;100.00;102286.38;5203099;28;20713;-80
2022/01/15 00:55:53;;;;;;;37.40;15.15;;;;;;;3.83;100.00;102286.25;5203971;28;20120;-80
2022/01/15 00:58:24;;;;;;;34.30;15.05;;;;;;;3.79;100.00;102279.28;5211399;28;20082;-80
2022/01/15 01:00:54;;;;;;;30.38;13.95;;;;;;;3.70;100.00;102273.94;5208691;28;20029;-81
2022/01/15 01:03:24;;;;;;;30.90;13.93;;;;;;;3.51;100.00;102270.09;5211667;28;20526;-80
2022/01/15 01:05:55;;;;;;;23.52;10.50;;;;;;;3.23;100.00;102267.78;5210927;28;20104;-80
2022/01/15 01:08:25;;;;;;;23.15;10.75;;;;;;;3.16;100.00;102271.09;5205567;28;20407;-79
2022/01/15 01:10:57;;;;;;;26.20;12.18;;;;;;;3.23;100.00;102273.81;5208407;28;20037;-80
2022/01/15 01:22:48;;;;;;;29.13;12.43;;;;;;;3.28;100.00;102266.16;5207135;28;20101;-80
2022/01/15 01:24:49;;;;;;;27.83;13.00;;;;;;;3.38;100.00;102268.09;5198485;28;20029;-81
2022/01/15 01:27:26;;;;;;;30.55;13.88;;;;;;;3.48;100.00;102272.59;5203058;28;20025;-79
2022/01/15 01:30:20;;;;;;;37.83;16.73;;;;;;;3.62;100.00;102272.91;5206103;28;20036;-80
2022/01/15 01:35:35;;;;;;;39.85;9.07;;;;;;;2.64;100.00;102273.31;5210690;28;20099;-79
2022/01/15 01:38:27;;;;;;;30.98;9.30;;;;;;;2.57;100.00;102262.00;5212954;28;20021;-80
2022/01/15 01:41:00;;;;;;;38.28;10.07;;;;;;;2.50;100.00;102259.25;5208381;28;20688;-81
2022/01/15 01:43:43;;;;;;;23.85;10.55;;;;;;;2.67;100.00;102255.34;5210718;28;20188;-79
2022/01/15 01:48:57;;;;;;;;;;;;;;;2.59;100.00;102259.44;5203215;28;20399;-80
2022/01/15 01:51:34;;;;;;;24.98;9.48;;;;;;;2.67;100.00;102250.19;5211864;28;20338;-79
2022/01/15 01:54:07;;;;;;;22.05;10.13;;;;;;;2.79;100.00;102243.59;5200830;28;20029;-81
2022/01/15 01:56:37;;;;;;;31.13;10.88;;;;;;;2.75;100.00;102256.38;5211851;28;20048;-80
2022/01/15 01:59:08;;;;;;;26.00;11.73;;;;;;;2.87;100.00;102252.34;5212742;28;20463;-78
2022/01/15 02:01:38;;;;;;;27.85;12.93;;;;;;;2.99;100.00;102247.47;5214784;28;20025;-80
2022/01/15 02:04:08;;;;;;;24.67;11.75;;;;;;;3.15;100.00;102252.13;5211366;28;20036;-80
2022/01/15 02:06:39;;;;;;;28.55;12.60;;;;;;;2.93;100.00;102238.72;5206327;28;20199;-81
2022/01/15 02:09:10;;;;;;;26.85;12.60;;;;;;;3.07;100.00;102252.78;5208534;28;20033;-81
2022/01/15 02:11:42;;;;;;;27.08;12.48;;;;;;;3.10;100.00;102245.09;5213541;28;20108;-80
2022/01/15 02:14:30;;;;;;;26.17;12.52;;;;;;;3.18;100.00;102238.41;5211876;28;20036;-81
2022/01/15 02:17:00;;;;;;;28.38;13.27;;;;;;;3.16;100.00;102240.94;5212067;28;20025;-79
2022/01/15 02:19:44;;;;;;;34.33;13.25;;;;;;;3.12;100.00;102239.16;5205855;28;20036;-79
2022/01/15 02:25:04;;;;;;;29.35;13.57;;;;;;;3.36;100.00;102225.88;5202987;28;20075;-80
2022/01/15 02:27:34;;;;;;;29.13;13.90;;;;;;;3.28;100.00;102219.66;5215136;28;20037;-80
2022/01/15 02:30:05;;;;;;;30.52;14.20;;;;;;;3.37;100.00;102227.59;5211178;28;20419;-80
2022/01/15 02:32:36;;;;;;;56.83;18.30;;;;;;;3.55;100.00;102221.06;5214798;28;20025;-80
2022/01/15 02:35:06;;;;;;;40.47;18.63;;;;;;;3.67;100.00;102216.13;5209746;28;20028;-80
2022/01/15 02:37:37;;;;;;;40.42;17.27;;;;;;;3.73;100.00;102222.28;5202593;28;20108;-80
2022/01/15 02:40:09;;;;;;;39.80;15.90;;;;;;;3.82;100.00;102226.75;5211905;28;20028;-79
2022/01/15 02:42:40;;;;;;;34.95;15.77;;;;;;;3.81;100.00;102218.09;5213144;28;20033;-81
2022/01/15 02:45:11;;;;;;;44.92;16.83;;;;;;;3.70;100.00;102218.75;5212284;28;20029;-81
2022/01/15 02:48:00;;;;;;;55.30;16.27;;;;;;;3.60;100.00;102215.13;5213072;28;20029;-81
2022/01/15 02:50:31;;;;;;;38.72;15.63;;;;;;;3.69;100.00;102204.97;5206760;28;20109;-81
2022/01/15 02:53:02;;;;;;;35.47;14.77;;;;;;;3.63;100.00;102206.59;5206314;28;20100;-80
2022/01/15 02:55:32;;;;;;;49.97;15.50;;;;;;;3.69;100.00;102197.22;5206331;28;20028;-80
2022/01/15 02:58:03;;;;;;;54.53;16.35;;;;;;;3.68;100.00;102203.25;5211743;28;20445;-79
2022/01/15 03:00:34;;;;;;;36.33;16.55;;;;;;;3.76;100.00;102204.25;5215522;28;20033;-79
2022/01/15 03:03:05;;;;;;;52.28;17.48;;;;;;;3.79;100.00;102206.88;5211767;28;20044;-79
2022/01/15 03:05:35;;;;;;;48.20;16.42;;;;;;;3.74;100.00;102202.47;5210481;28;20041;-80
2022/01/15 03:08:08;;;;;;;38.35;16.70;;;;;;;3.80;100.00;102193.09;5203992;28;20033;-79
2022/01/15 03:10:38;;;;;;;37.42;17.35;;;;;;;3.93;100.00;102197.66;5213334;28;20048;-80
2022/01/15 03:13:11;;;;;;;47.05;16.75;;;;;;;3.96;100.00;102192.53;5212538;28;20643;-80
2022/01/15 03:15:42;;;;;;;38.38;15.68;;;;;;;3.88;100.00;102183.78;5213806;28;20491;-80
2022/01/15 03:18:12;;;;;;;34.75;15.35;;;;;;;3.93;100.00;102184.72;5212061;28;20063;-80
2022/01/15 03:20:42;;;;;;;40.85;16.92;;;;;;;3.94;100.00;102185.59;5213627;28;20052;-79
2022/01/15 03:23:13;;;;;;;56.35;16.85;;;;;;;3.99;100.00;102189.13;5206323;28;20030;-79
2022/01/15 03:25:44;;;;;;;37.88;16.33;;;;;;;4.05;100.00;102181.47;5205693;28;20028;-80
2022/01/15 03:28:14;;;;;;;38.28;16.45;;;;;;;4.07;100.00;102170.31;5211927;28;20395;-80
2022/01/15 03:30:45;;;;;;;36.60;16.10;;;;;;;4.08;100.00;102174.63;5212044;28;20025;-81
2022/01/15 03:33:15;;;;;;;40.13;16.27;;;;;;;4.19;100.00;102183.44;5211475;28;20048;-80
2022/01/15 03:35:46;;;;;;;40.38;16.83;;;;;;;4.17;100.00;102174.78;5207720;28;20030;-80
2022/01/15 03:38:16;;;;;;;39.25;16.60;;;;;;;4.23;100.00;102174.88;5202845;28;20060;-80
2022/01/15 03:40:47;;;;;;;39.47;16.05;;;;;;;4.25;100.00;102175.75;5211011;28;20025;-82
2022/01/15 03:43:17;;;;;;;54.83;18.13;;;;;;;4.26;100.00;102177.50;5209682;28;20025;-81
2022/01/15 03:45:47;;;;;;;41.13;16.58;;;;;;;4.36;100.00;102175.91;5213411;28;20071;-80
2022/01/15 03:48:18;;;;;;;46.80;16.95;;;;;;;4.45;100.00;102171.75;5211755;28;20398;-80
2022/01/15 03:50:48;;;;;;;53.88;19.20;;;;;;;4.46;100.00;102170.91;5211650;28;20020;-80
2022/01/15 03:53:20;;;;;;;49.78;18.02;;;;;;;4.44;100.00;102169.16;5204550;28;20476;-80
2022/01/15 03:55:51;;;;;;;52.15;18.65;;;;;;;4.46;100.00;102172.63;5203959;28;20434;-80
2022/01/15 03:58:21;;;;;;;38.83;16.83;;;;;;;4.34;100.00;102162.97;5211958;28;20119;-81
2022/01/15 04:00:52;;;;;;;46.22;17.25;;;;;;;4.17;100.00;102156.69;5210575;28;20104;-79
2022/01/15 04:03:22;;;;;;;41.15;16.75;;;;;;;4.04;100.00;102165.09;5211999;28;20528;-81
2022/01/15 04:05:53;;;;;;;39.65;17.35;;;;;;;4.06;100.00;102157.31;5205857;28;20028;-80
2022/01/15 04:08:23;;;;;;;46.75;17.90;;;;;;;4.17;100.00;102159.25;5204049;28;20029;-81
2022/01/15 04:10:53;;;;;;;45.00;17.42;;;;;;;4.33;100.00;102153.44;5210305;28;20473;-80
2022/01/15 04:13:24;;;;;;;46.53;18.17;;;;;;;4.31;100.00;102152.56;5212364;28;20039;-81
2022/01/15 04:15:54;;;;;;;45.08;18.02;;;;;;;4.30;100.00;102145.63;5208585;28;20109;-81
2022/01/15 04:18:25;;;;;;;44.97;18.13;;;;;;;4.41;100.00;102140.63;5212039;28;20048;-80
2022/01/15 04:20:58;;;;;;;45.47;17.05;;;;;;;4.51;100.00;102132.16;5209641;28;20034;-81
2022/01/15 04:23:28;;;;;;;42.75;17.08;;;;;;;4.38;100.00;102143.16;5204531;28;20029;-78
2022/01/15 04:25:58;;;;;;;44.00;18.05;;;;;;;4.47;100.00;102143.31;5204995;28;20025;-81
2022/01/15 04:28:31;;;;;;;40.55;16.67;;;;;;;4.51;100.00;102138.22;5212442;28;20032;-80
2022/01/15 04:31:05;;;;;;;46.97;18.25;;;;;;;4.44;100.00;102143.28;5203434;28;20025;-81
2022/01/15 04:33:37;;;;;;;44.78;16.95;;;;;;;4.42;100.00;102138.06;5210802;28;20846;-81
2022/01/15 04:36:08;;;;;;;54.47;19.02;;;;;;;4.41;100.00;102128.56;5204866;28;20029;-81
2022/01/15 04:38:42;;;;;;;46.45;18.42;;;;;;;4.40;100.00;102137.19;5204544;28;20029;-80
2022/01/15 04:41:12;;;;;;;51.67;18.73;;;;;;;4.53;100.00;102139.09;5209905;28;20530;-81
2022/01/15 04:43:43;;;;;;;58.25;20.42;;;;;;;4.66;100.00;102151.34;5211119;28;20303;-80
2022/01/15 04:46:13;;;;;;;53.67;19.70;;;;;;;4.84;100.00;102145.53;5205107;28;20029;-79
2022/01/15 04:48:43;;;;;;;54.97;18.27;;;;;;;5.02;100.00;102148.34;5201557;28;20024;-80
2022/01/15 04:51:13;;;;;;;59.10;19.35;;;;;;;4.99;100.00;102145.72;5201281;28;20072;-82
2022/01/15 04:53:44;;;;;;;54.10;18.85;;;;;;;5.14;100.00;102145.91;5200335;28;20499;-81
2022/01/15 04:56:14;;;;;;;51.60;17.92;;;;;;;5.04;100.00;102142.34;5201653;28;20030;-81
2022/01/15 04:58:44;;;;;;;54.53;18.58;;;;;;;4.95;100.00;102134.44;5201321;28;20121;-81
2022/01/15 05:01:15;;;;;;;64.22;19.88;;;;;;;5.14;100.00;102133.81;5201713;28;20067;-82
2022/01/15 05:03:45;;;;;;;59.63;20.77;;;;;;;4.95;100.00;102137.03;5200572;28;20404;-82
2022/01/15 05:06:17;;;;;;;62.17;20.30;;;;;;;4.94;100.00;102129.28;5201639;28;20601;-81
2022/01/15 05:08:51;;;;;;;52.42;18.50;;;;;;;4.95;100.00;102142.22;5210380;28;20079;-80
2022/01/15 05:11:31;;;;;;;51.60;18.77;;;;;;;5.00;100.00;102144.88;5210284;28;20064;-80
2022/01/15 05:14:02;;;;;;;64.10;21.05;;;;;;;5.26;100.00;102143.44;5204709;28;20078;-80
2022/01/15 05:16:32;;;;;;;59.00;19.83;;;;;;;5.14;100.00;102138.13;5213180;28;20017;-79
2022/01/15 05:19:03;;;;;;;56.28;19.05;;;;;;;5.14;100.00;102139.00;5213059;28;20124;-80
2022/01/15 05:21:33;;;;;;;56.20;18.25;;;;;;;5.06;100.00;102138.06;5216694;28;20025;-79
2022/01/15 05:24:05;;;;;;;50.28;17.67;;;;;;;5.14;100.00;102141.59;5204274;28;20547;-80
2022/01/15 05:26:35;;;;;;;48.72;17.63;;;;;;;5.05;100.00;102146.69;5213241;28;20064;-80
2022/01/15 05:29:06;;;;;;;56.17;19.17;;;;;;;5.15;100.00;102138.13;5213307;28;20063;-80
2022/01/15 05:31:36;;;;;;;57.08;20.95;;;;;;;5.09;100.00;102132.00;5216059;28;20029;-80
2022/01/15 05:34:06;;;;;;;49.53;18.67;;;;;;;4.95;100.00;102139.63;5213233;28;20037;-80
2022/01/15 05:36:39;;;;;;;49.13;17.48;;;;;;;5.00;100.00;102147.47;5206591;28;20021;-79
2022/01/15 05:39:09;;;;;;;57.83;19.08;;;;;;;5.21;100.00;102138.22;5209210;28;20021;-79
2022/01/15 05:41:40;;;;;;;50.55;16.75;;;;;;;5.18;100.00;102150.28;5215147;28;20401;-79
2022/01/15 05:44:10;;;;;;;45.53;17.13;;;;;;;5.12;100.00;102148.47;5212929;28;20088;-81
2022/01/15 05:46:40;;;;;;;56.17;18.40;;;;;;;5.01;100.00;102144.88;5215239;28;20591;-79
2022/01/15 05:49:11;;;;;;;54.22;18.75;;;;;;;5.05;100.00;102141.50;5213258;28;20021;-80
2022/01/15 05:51:41;;;;;;;64.50;19.00;;;;;;;5.02;100.00;102149.25;5214590;28;20016;-80
2022/01/15 05:54:12;;;;;;;52.40;17.85;;;;;;;5.04;100.00;102149.25;5201769;28;20033;-80
2022/01/15 05:56:42;;;;;;;44.47;16.60;;;;;;;4.98;100.00;102144.84;5211541;28;20439;-81
2022/01/15 05:59:12;;;;;;;50.20;17.60;;;;;;;5.00;100.00;102147.47;5213465;28;20026;-81
2022/01/15 06:01:43;;;;;;;52.45;17.33;;;;;;;4.98;100.00;102152.63;5214106;28;20029;-81
2022/01/15 06:04:14;;;;;;;52.33;18.90;;;;;;;4.95;100.00;102142.22;5213477;28;20040;-81
2022/01/15 06:06:44;;;;;;;49.22;17.98;;;;;;;5.01;100.00;102152.66;5204188;28;20026;-80
2022/01/15 06:09:14;;;;;;;53.83;16.90;;;;;;;4.97;100.00;102148.28;5208880;28;20108;-81
2022/01/15 06:11:45;;;;;;;50.22;17.73;;;;;;;4.90;100.00;102151.66;5213738;28;20035;-81
2022/01/15 06:14:15;;;;;;;46.40;17.10;;;;;;;4.86;100.00;102144.72;5211618;28;20432;-80
2022/01/15 06:16:45;;;;;;;47.03;17.73;;;;;;;4.85;100.00;102145.56;5214010;28;20037;-81
2022/01/15 06:19:16;;;;;;;47.22;16.67;;;;;;;4.96;100.00;102141.38;5213229;28;20502;-81
2022/01/15 06:21:46;;;;;;;42.20;16.00;;;;;;;5.01;100.00;102149.19;5213074;28;20049;-81
2022/01/15 06:24:16;;;;;;;49.78;16.67;;;;;;;4.92;100.00;102149.06;5203206;28;20021;-81
2022/01/15 06:26:46;;;;;;;49.35;16.75;;;;;;;4.79;100.00;102148.06;5211358;28;20500;-81
2022/01/15 06:29:17;;;;;;;47.70;16.58;;;;;;;4.79;100.00;102137.69;5213126;28;20029;-80
2022/01/15 06:31:47;;;;;;;43.95;15.25;;;;;;;4.76;100.00;102142.84;5212571;28;20032;-81
2022/01/15 06:34:17;;;;;;;47.38;15.40;;;;;;;4.92;100.00;102125.75;5213244;28;20590;-81
2022/01/15 06:36:47;;;;;;;47.00;15.38;;;;;;;4.75;100.00;102120.41;5204457;28;20029;-81
2022/01/15 06:39:18;;;;;;;50.03;15.73;;;;;;;4.59;100.00;102121.03;5207943;28;20033;-80
2022/01/15 06:41:48;;;;;;;46.50;15.35;;;;;;;4.67;100.00;102123.75;5212989;28;20041;-79
2022/01/15 06:44:18;;;;;;;43.60;16.05;;;;;;;4.51;100.00;102129.56;5211538;28;20040;-80
2022/01/15 06:46:48;;;;;;;50.80;17.05;;;;;;;4.46;100.00;102129.50;5212147;28;20033;-81
2022/01/15 06:49:19;;;;;;;49.25;16.15;;;;;;;4.44;100.00;102126.00;5211471;28;20375;-80
2022/01/15 06:51:49;;;;;;;46.13;15.60;;;;;;;4.47;100.00;102138.13;5211051;28;20039;-81
2022/01/15 06:54:19;;;;;;;46.72;17.10;;;;;;;4.47;100.00;102132.97;5202054;28;20028;-81
2022/01/15 06:56:49;;;;;;;51.80;18.08;;;;;;;4.44;100.00;102138.09;5210610;28;20056;-80
2022/01/15 06:59:20;;;;;;;56.15;18.40;;;;;;;4.47;100.00;102138.13;5213012;28;20098;-80
2022/01/15 07:01:50;;;;;;;49.50;18.80;;;;;;;4.77;100.00;102141.16;5211543;28;20143;-80
2022/01/15 07:04:20;;;;;;;52.30;18.15;;;;;;;4.58;100.00;102146.91;5212965;28;20033;-80
2022/01/15 07:06:50;;;;;;;55.50;17.73;;;;;;;4.54;100.00;102143.41;5203369;28;20040;-80
2022/01/15 07:09:21;;;;;;;44.15;15.57;;;;;;;4.58;100.00;102145.19;5209063;28;20049;-80
2022/01/15 07:11:51;;;;;;;48.70;16.77;;;;;;;4.49;100.00;102150.22;5211499;28;20049;-81
2022/01/15 07:14:21;;;;;;;53.60;17.20;;;;;;;4.70;100.00;102147.97;5213264;28;20024;-81
2022/01/15 07:16:52;;;;;;;63.58;19.23;;;;;;;4.56;100.00;102146.91;5211817;28;20048;-81
2022/01/15 07:19:22;;;;;;;56.75;18.38;;;;;;;4.90;100.00;102154.25;5212778;28;20623;-81
2022/01/15 07:21:52;;;;;;;53.28;18.55;;;;;;;4.78;100.00;102142.88;5205750;28;20402;-81
2022/01/15 07:24:23;;;;;;;47.92;17.67;;;;;;;4.74;100.00;102144.56;5201600;28;20036;-79
2022/01/15 07:26:53;;;;;;;57.45;19.38;;;;;;;4.70;100.00;102152.25;5208771;28;20037;-80
2022/01/15 07:29:24;;;;;;;55.83;16.15;;;;;;;4.66;100.00;102145.31;5213282;28;20120;-81
2022/01/15 07:31:55;;;;;;;62.35;18.52;;;;;;;4.69;100.00;102143.63;5210977;28;20123;-80
2022/01/15 07:34:25;;;;;;;59.22;18.95;;;;;;;4.74;100.00;102148.84;5213236;28;20096;-80
2022/01/15 07:36:59;;;;;;;53.42;18.45;;;;;;;4.74;100.00;102154.91;5202178;28;20087;-80
2022/01/15 07:39:29;;;;;;;56.03;18.95;;;;;;;4.99;100.00;102151.75;5208950;28;20140;-79
2022/01/15 07:42:00;;;;;;;56.58;18.17;;;;;;;5.10;100.00;102145.00;5214707;28;20124;-86
2022/01/15 07:44:30;;;;;;;52.97;17.52;;;;;;;5.06;100.00;102156.19;5222969;28;20021;-84
2022/01/15 07:47:00;;;;;;;58.08;19.85;;;;;;;5.00;100.00;102150.91;5209507;28;20049;-83
2022/01/15 07:49:32;;;;;;;51.58;17.27;;;;;;;5.05;100.00;102151.84;5206109;28;20040;-79
2022/01/15 07:52:03;;;;;;;56.83;19.15;;;;;;;5.16;100.00;102145.06;5223048;28;20052;-80
2022/01/15 07:54:33;;;;;;;52.78;18.98;;;;;;;5.12;100.00;102148.47;5216489;28;20052;-79
2022/01/15 07:57:03;;;;;;;57.28;18.60;;;;;;;5.14;100.00;102141.59;5202558;28;20419;-78
2022/01/15 07:59:34;;;;;;;63.30;19.38;;;;;;;5.12;100.00;102140.69;5202794;28;20127;-87
2022/01/15 08:02:05;;;;;;;58.00;18.60;;;;;;;4.98;100.00;102139.66;5202147;28;20034;-82
2022/01/15 08:04:35;;;;;;;52.42;17.63;;;;;;;5.01;100.00;102137.09;5202324;28;20091;-78
2022/01/15 08:07:05;;;;;;;58.33;18.08;;;;;;;5.01;100.00;102138.84;5202694;28;20029;-79
2022/01/15 08:09:36;;;;;;;52.20;19.25;;;;;;;4.99;100.00;102141.41;5202998;28;20057;-78
2022/01/15 08:12:07;;;;;;;60.92;19.85;;;;;;;4.92;100.00;102137.00;5215276;28;20028;-87
2022/01/15 08:14:38;;;;;;;59.95;20.98;;;;;;;5.02;100.00;102141.47;5222171;28;20102;-80
2022/01/15 08:17:08;;;;;;;59.60;20.23;;;;;;;5.09;100.00;102132.91;5221597;28;20049;-78
2022/01/15 08:19:38;;;;;;;62.65;20.35;;;;;;;5.07;100.00;102137.19;5201723;28;20029;-78
2022/01/15 08:22:10;;;;;;;52.88;18.77;;;;;;;5.11;100.00;102140.69;5201717;28;20060;-79
2022/01/15 08:24:40;;;;;;;56.85;20.35;;;;;;;5.09;100.00;102143.25;5204987;28;20114;-80
2022/01/15 08:27:11;;;;;;;55.78;19.55;;;;;;;5.16;100.00;102142.47;5206217;28;20025;-80
2022/01/15 08:29:41;;;;;;;58.47;20.27;;;;;;;5.07;100.00;102136.31;5209892;28;20044;-80
2022/01/15 08:32:11;;;;;;;62.75;20.38;;;;;;;5.12;100.00;102142.44;5210151;28;20021;-80
2022/01/15 08:34:43;;;;;;;61.17;20.98;;;;;;;5.32;100.00;102136.59;5209883;28;20059;-80
2022/01/15 08:37:13;;;;;;;61.53;21.42;;;;;;;5.27;100.00;102143.47;5200039;28;20765;-81
2022/01/15 08:39:44;;;;;;;53.47;18.73;;;;;;;5.29;100.00;102131.38;5204663;28;20115;-81
2022/01/15 08:42:14;;;;;;;55.40;19.58;;;;;;;5.33;100.00;102129.72;5210726;28;20029;-81
2022/01/15 08:44:45;;;;;;;58.00;19.95;;;;;;;5.34;100.00;102121.94;5211002;28;20028;-81
2022/01/15 08:47:16;;;;;;;60.00;19.45;;;;;;;5.35;100.00;102133.19;5209393;28;20020;-79
2022/01/15 08:49:46;;;;;;;57.45;19.63;;;;;;;5.42;100.00;102130.66;5210687;28;20832;-82
2022/01/15 08:52:16;;;;;;;53.58;17.40;;;;;;;5.51;100.00;102128.16;5208800;28;20301;-79
2022/01/15 08:54:47;;;;;;;47.25;16.77;;;;;;;5.47;100.00;102126.38;5202531;28;20040;-80
2022/01/15 08:57:17;;;;;;;53.58;18.20;;;;;;;5.41;100.00;102134.13;5213538;28;20109;-80
2022/01/15 08:59:47;;;;;;;52.70;17.55;;;;;;;5.35;100.00;102133.19;5211825;28;20032;-80
2022/01/15 09:02:17;;;;;;;52.30;17.52;;;;;;;5.28;100.00;102134.84;5211425;28;20029;-80
2022/01/15 09:04:48;;;;;;;54.22;16.95;;;;;;;5.29;100.00;102133.97;5212216;28;20039;-80
2022/01/15 09:07:19;;;;;;;52.85;16.42;;;;;;;5.55;100.00;102124.75;5205270;28;20569;-80
2022/01/15 09:09:49;;;;;;;47.65;16.77;;;;;;;5.45;100.00;102123.81;5209715;28;20468;-80
2022/01/15 09:12:22;;;;;;;44.55;16.00;;;;;;;5.42;100.00;102118.56;5207164;28;20036;-80
2022/01/15 09:14:54;;;;;;;50.22;16.88;;;;;;;5.61;100.00;102130.00;5206020;28;20284;-79
2022/01/15 09:17:26;;;;;;;52.33;17.05;;;;;;;5.65;100.00;102129.16;5213451;28;20601;-80
2022/01/15 09:19:56;;;;;;;55.75;19.55;;;;;;;5.56;100.00;102129.09;5212290;28;20030;-80
2022/01/15 09:22:27;;;;;;;58.45;18.10;;;;;;;5.61;100.00;102123.06;5210341;28;20025;-79
2022/01/15 09:24:57;;;;;;;61.63;19.95;;;;;;;5.63;100.00;102134.34;5217978;28;20029;-80
2022/01/15 09:30:16;;;;;;;53.72;18.52;;;;;;;5.78;100.00;102137.09;5210572;28;20044;-80
2022/01/15 09:32:49;;;;;;;58.40;18.67;;;;;;;5.93;100.00;102133.78;5212331;28;20029;-79
2022/01/15 09:35:28;;;;;;;45.05;17.27;;;;;;;5.93;100.00;102128.56;5210826;28;20029;-79
2022/01/15 09:37:59;;;;;;;52.45;17.90;;;;;;;5.84;100.00;102133.69;5218641;28;20024;-79
2022/01/15 09:40:30;;;;;;;45.40;17.30;;;;;;;5.99;100.00;102131.22;5210786;28;20061;-79
2022/01/15 09:43:01;;;;;;;41.97;16.88;;;;;;;5.99;100.00;102133.81;5212812;28;20594;-80
2022/01/15 09:45:35;;;;;;;47.67;17.15;;;;;;;6.09;100.00;102131.28;5206727;28;20071;-79
2022/01/15 09:48:07;;;;;;;41.03;15.80;;;;;;;5.98;100.00;102132.97;5214073;28;20017;-80
2022/01/15 09:50:43;;;;;;;47.53;16.15;;;;;;;6.05;100.00;102133.88;5211725;28;20502;-79
2022/01/15 09:53:16;;;;;;;45.00;16.95;;;;;;;5.96;100.00;102134.69;5204811;28;20025;-79
2022/01/15 09:55:47;;;;;;;47.80;16.70;;;;;;;6.07;100.00;102129.56;5206038;28;20040;-79
2022/01/15 09:58:18;;;;;;;44.55;16.38;;;;;;;6.19;100.00;102129.63;5212693;28;20117;-80
2022/01/15 10:00:48;;;;;;;41.35;15.77;;;;;;;6.16;100.00;102129.63;5212648;28;20064;-80
2022/01/15 10:03:19;;;;;;;35.83;15.05;;;;;;;6.22;100.00;102127.06;5215009;28;20608;-79
2022/01/15 10:05:50;;;;;;;32.85;13.75;;;;;;;6.11;100.00;102123.53;5212496;28;20488;-79
2022/01/15 10:08:20;;;;;;;35.50;15.98;;;;;;;6.12;100.00;102130.44;5208424;28;20025;-80
2022/01/15 10:10:52;;;;;;;38.60;15.50;;;;;;;6.21;100.00;102120.13;5215728;28;20792;-79
2022/01/15 10:13:25;;;;;;;46.60;15.40;;;;;;;6.03;100.00;102125.19;5216479;28;20025;-79
2022/01/15 10:15:58;;;;;;;43.25;15.82;;;;;;;6.14;100.00;102114.03;5214674;28;20395;-80
2022/01/15 10:18:31;;;;;;;40.90;14.95;;;;;;;6.00;100.00;102113.06;5218531;28;20017;-80
2022/01/15 10:21:19;;;;;;;33.63;14.38;;;;;;;6.01;100.00;102119.13;5211305;28;20442;-80
2022/01/15 10:23:57;;;;;;;33.97;14.30;;;;;;;6.05;100.00;102113.97;5208171;28;20095;-79
2022/01/15 10:26:35;;;;;;;36.40;14.00;;;;;;;6.08;100.00;102102.75;5217366;28;20025;-80
2022/01/15 10:29:07;;;;;;;36.40;15.52;;;;;;;6.33;100.00;102110.72;5211703;28;20116;-80
2022/01/15 10:31:43;;;;;;;34.08;14.10;;;;;;;6.27;100.00;102107.19;5217833;28;20475;-79
2022/01/15 10:34:25;;;;;;;34.05;14.02;;;;;;;6.33;100.00;102109.81;5216379;28;20037;-79
2022/01/15 10:37:07;;;;;;;30.85;12.63;;;;;;;6.32;100.00;102108.09;5207137;28;20570;-79
2022/01/15 10:39:39;;;;;;;32.75;13.07;;;;;;;6.31;100.00;102111.53;5211152;28;20060;-80
2022/01/15 10:42:15;;;;;;;26.75;12.65;;;;;;;6.25;100.00;102106.31;5215175;28;20040;-79
2022/01/15 10:44:47;;;;;;;29.67;13.43;;;;;;;6.21;100.00;102104.53;5217360;28;20505;-79
2022/01/15 10:47:19;;;;;;;33.03;13.63;;;;;;;6.41;100.00;102100.38;5217597;28;20168;-80
2022/01/15 10:49:50;;;;;;;33.17;13.52;;;;;;;6.34;100.00;102091.66;5215913;28;20120;-79
2022/01/15 10:52:22;;;;;;;33.20;14.48;;;;;;;6.39;100.00;102091.72;5214128;28;20523;-79
2022/01/15 10:55:09;;;;;;;38.22;14.25;;;;;;;6.37;100.00;102096.00;5205267;28;20052;-80
2022/01/15 10:57:41;;;;;;;38.83;15.35;;;;;;;6.44;100.00;102087.41;5211895;28;20033;-80
2022/01/15 11:00:16;;;;;;;32.65;13.80;;;;;;;6.31;100.00;102081.28;5217069;28;20082;-80
2022/01/15 11:02:50;;;;;;;37.72;14.50;;;;;;;6.44;100.00;102087.41;5216106;28;20092;-80
2022/01/15 11:05:20;;;;;;;30.83;14.52;;;;;;;6.31;100.00;102081.28;5213510;28;20800;-80
2022/01/15 11:07:52;;;;;;;34.03;13.17;;;;;;;6.48;100.00;102077.03;5204033;28;20038;-80
2022/01/15 11:10:22;;;;;;;37.90;14.93;;;;;;;6.49;100.00;102067.50;5216725;28;20803;-80
2022/01/15 11:12:53;;;;;;;34.15;14.18;;;;;;;6.51;100.00;102064.06;5214188;28;20021;-79
2022/01/15 11:15:23;;;;;;;31.48;13.25;;;;;;;6.54;100.00;102063.19;5215235;28;20108;-79
2022/01/15 11:17:54;;;;;;;30.80;13.50;;;;;;;6.50;100.00;102062.34;5213548;28;20032;-79
2022/01/15 11:20:29;;;;;;;36.90;13.77;;;;;;;6.56;100.00;102053.69;5206713;28;20614;-79
2022/01/15 11:23:02;;;;;;;35.35;13.40;;;;;;;6.75;100.00;102053.75;5210728;28;20025;-79
2022/01/15 11:25:32;;;;;;;27.92;11.90;;;;;;;6.65;100.00;102051.13;5205279;28;20043;-79
2022/01/15 11:28:05;;;;;;;28.70;12.18;;;;;;;6.54;100.00;102043.28;5212634;28;20383;-80
2022/01/15 11:30:35;;;;;;;35.28;14.45;;;;;;;6.55;100.00;102045.03;5213379;28;20033;-80
2022/01/15 11:33:07;;;;;;;35.88;13.65;;;;;;;6.47;100.00;102036.34;5215528;28;20017;-80
2022/01/15 11:35:45;;;;;;;32.10;12.57;;;;;;;6.45;100.00;102042.38;5211389;28;20360;-79
2022/01/15 11:38:45;;;;;;;31.00;13.00;;;;;;;6.52;100.00;102038.94;5215416;28;20468;-80
2022/01/15 11:41:27;;;;;;;31.70;12.65;;;;;;;6.45;100.00;102038.03;5213180;28;20112;-79
2022/01/15 11:43:59;;;;;;;31.75;12.50;;;;;;;6.31;100.00;102034.53;5211314;28;20025;-79
2022/01/15 11:46:50;;;;;;;33.08;11.85;;;;;;;6.24;100.00;102034.50;5217222;28;20021;-80
2022/01/15 11:49:42;;;;;;;34.20;12.43;;;;;;;6.31;100.00;102033.66;5214942;28;20029;-79